createdAt,value
2023-04-14T00:02:08.564Z,15.58
2023-04-14T00:04:35.947Z,15.61
2023-04-14T00:07:03.093Z,15.59
2023-04-14T00:09:30.261Z,15.57
2023-04-14T00:11:57.667Z,15.52
2023-04-14T00:14:24.530Z,15.45
2023-04-14T00:16:51.556Z,15.40
2023-04-14T00:19:18.377Z,15.30
2023-04-14T00:21:45.210Z,15.30
2023-04-14T00:24:11.990Z,15.27
2023-04-14T00:26:38.877Z,15.28
2023-04-14T00:29:05.786Z,15.28
2023-04-14T00:31:34.030Z,15.14
2023-04-14T00:34:00.976Z,15.10
2023-04-14T00:36:28.080Z,15.13
2023-04-14T00:38:54.993Z,15.12
2023-04-14T00:41:21.875Z,15.07
2023-04-14T00:43:48.809Z,15.05
2023-04-14T00:46:17.338Z,14.96
2023-04-14T00:48:44.572Z,14.90
2023-04-14T00:51:12.208Z,14.80
2023-04-14T00:53:40.330Z,14.59
2023-04-14T00:56:08.222Z,14.51
2023-04-14T00:58:36.475Z,14.37
2023-04-14T01:01:03.375Z,14.20
2023-04-14T01:03:30.461Z,14.19
2023-04-14T01:05:58.214Z,13.99
2023-04-14T01:08:25.747Z,13.78
2023-04-14T01:11:12.741Z,13.53
2023-04-14T01:13:56.776Z,13.57
2023-04-14T01:16:33.157Z,13.63
2023-04-14T01:19:18.888Z,13.71
2023-04-14T01:21:52.265Z,13.78
2023-04-14T01:24:51.970Z,13.89
2023-04-14T01:27:34.020Z,13.66
2023-04-14T01:30:13.964Z,13.79
2023-04-14T01:32:44.961Z,13.61
2023-04-14T01:35:33.746Z,13.51
2023-04-14T01:38:06.956Z,13.52
2023-04-14T01:40:35.496Z,13.63
2023-04-14T01:43:05.753Z,13.76
2023-04-14T01:45:38.599Z,13.79
2023-04-14T01:48:07.667Z,13.87
2023-04-14T01:50:37.270Z,13.82
2023-04-14T01:53:07.279Z,13.86
2023-04-14T01:55:37.842Z,13.92
2023-04-14T01:58:07.576Z,13.92
2023-04-14T02:00:36.614Z,13.96
2023-04-14T02:03:06.343Z,13.99
2023-04-14T02:05:42.213Z,13.95
2023-04-14T02:08:12.712Z,13.95
2023-04-14T02:10:43.159Z,13.80
2023-04-14T02:13:11.753Z,13.74
2023-04-14T02:15:40.911Z,13.68
2023-04-14T02:18:08.273Z,13.53
2023-04-14T02:20:38.132Z,13.58
2023-04-14T02:23:05.021Z,13.61
2023-04-14T02:25:35.175Z,13.66
2023-04-14T02:28:10.769Z,13.68
2023-04-14T02:30:43.985Z,13.53
2023-04-14T02:33:17.335Z,13.35
2023-04-14T02:36:17.180Z,13.39
2023-04-14T02:38:53.290Z,13.43
2023-04-14T02:41:26.371Z,13.47
2023-04-14T02:44:01.859Z,13.50
2023-04-14T02:46:35.983Z,13.50
2023-04-14T02:49:06.191Z,13.45
2023-04-14T02:51:36.730Z,13.42
2023-04-14T02:54:05.569Z,13.45
2023-04-14T02:56:40.030Z,13.41
2023-04-14T02:59:07.995Z,13.43
2023-04-14T03:01:40.003Z,13.48
2023-04-14T03:04:07.989Z,13.22
2023-04-14T03:06:38.918Z,13.19
2023-04-14T03:09:07.279Z,13.19
2023-04-14T03:11:37.003Z,13.26
2023-04-14T03:14:04.527Z,13.31
2023-04-14T03:16:32.245Z,13.32
2023-04-14T03:19:00.181Z,13.30
2023-04-14T03:21:30.209Z,13.30
2023-04-14T03:23:58.905Z,13.29
2023-04-14T03:26:29.857Z,13.22
2023-04-14T03:28:59.154Z,13.23
2023-04-14T03:31:32.628Z,13.23
2023-04-14T03:34:03.059Z,13.27
2023-04-14T03:36:36.108Z,13.12
2023-04-14T03:39:05.809Z,13.13
2023-04-14T03:41:38.800Z,13.04
2023-04-14T03:44:10.792Z,13.02
2023-04-14T03:46:37.727Z,12.90
2023-04-14T03:49:11.164Z,12.74
2023-04-14T03:51:40.484Z,12.58
2023-04-14T03:54:10.158Z,12.38
2023-04-14T03:56:41.185Z,12.21
2023-04-14T03:59:12.676Z,11.96
2023-04-14T04:01:41.969Z,11.70
2023-04-14T04:04:10.140Z,11.82
2023-04-14T04:06:37.266Z,11.87
2023-04-14T04:09:05.937Z,11.96
2023-04-14T04:11:35.050Z,12.05
2023-04-14T04:14:04.360Z,12.03
2023-04-14T04:16:35.823Z,11.99
2023-04-14T04:19:06.120Z,12.01
2023-04-14T04:21:36.796Z,11.90
2023-04-14T04:24:06.231Z,11.90
2023-04-14T04:26:36.618Z,12.00
2023-04-14T04:29:04.748Z,12.00
2023-04-14T04:31:33.438Z,11.89
2023-04-14T04:34:00.941Z,12.04
2023-04-14T04:36:31.712Z,12.12
2023-04-14T04:38:58.815Z,12.15
2023-04-14T04:41:30.688Z,12.18
2023-04-14T04:44:01.636Z,12.22
2023-04-14T04:46:53.434Z,12.29
2023-04-14T04:49:23.936Z,12.21
2023-04-14T04:51:52.765Z,12.23
2023-04-14T04:54:20.448Z,12.22
2023-04-14T04:56:47.222Z,12.28
2023-04-14T04:59:14.293Z,12.25
2023-04-14T05:01:41.568Z,12.27
2023-04-14T05:04:08.435Z,12.26
2023-04-14T05:06:37.625Z,12.26
2023-04-14T05:09:05.014Z,12.27
2023-04-14T05:11:32.809Z,12.26
2023-04-14T05:13:59.612Z,12.18
2023-04-14T05:16:28.209Z,12.06
2023-04-14T05:18:54.973Z,12.11
2023-04-14T05:21:21.947Z,12.08
2023-04-14T05:23:49.099Z,12.16
2023-04-14T05:28:46.649Z,12.17
2023-04-14T05:31:13.497Z,12.16
2023-04-14T05:33:40.388Z,12.13
2023-04-14T05:36:07.561Z,12.16
2023-04-14T05:38:39.023Z,12.15
2023-04-14T05:41:07.094Z,12.18
2023-04-14T05:43:33.860Z,12.16
2023-04-14T05:46:01.615Z,12.05
2023-04-14T05:48:30.766Z,11.92
2023-04-14T05:50:58.202Z,12.07
2023-04-14T05:53:25.282Z,12.15
2023-04-14T05:55:52.792Z,11.98
2023-04-14T05:58:20.128Z,11.97
2023-04-14T06:00:47.165Z,11.96
2023-04-14T06:03:15.093Z,11.78
2023-04-14T06:05:42.038Z,11.85
2023-04-14T06:08:08.762Z,11.90
2023-04-14T06:10:35.884Z,12.32
2023-04-14T06:13:02.729Z,12.52
2023-04-14T06:15:29.873Z,12.78
2023-04-14T06:17:56.830Z,12.82
2023-04-14T06:20:23.720Z,12.89
2023-04-14T06:22:50.544Z,12.88
2023-04-14T06:25:17.532Z,12.77
2023-04-14T06:27:44.469Z,12.87
2023-04-14T06:30:11.853Z,13.06
2023-04-14T06:32:38.663Z,13.23
2023-04-14T06:35:05.818Z,13.38
2023-04-14T06:37:32.641Z,13.46
2023-04-14T06:39:59.395Z,13.61
2023-04-14T06:42:26.323Z,13.73
2023-04-14T06:44:53.044Z,13.55
2023-04-14T06:47:21.053Z,13.42
2023-04-14T06:49:48.009Z,13.35
2023-04-14T06:52:14.721Z,13.27
2023-04-14T06:54:42.374Z,13.27
2023-04-14T06:57:09.399Z,13.10
2023-04-14T06:59:37.565Z,13.03
2023-04-14T07:02:04.800Z,12.81
2023-04-14T07:04:31.654Z,12.92
2023-04-14T07:07:01.777Z,12.77
2023-04-14T07:09:31.516Z,12.85
2023-04-14T07:11:59.579Z,12.93
2023-04-14T07:14:26.375Z,12.92
2023-04-14T07:16:53.224Z,12.94
2023-04-14T07:19:20.084Z,12.88
2023-04-14T07:21:47.267Z,12.74
2023-04-14T07:24:15.584Z,12.82
2023-04-14T07:26:44.213Z,13.01
2023-04-14T07:29:11.021Z,13.06
2023-04-14T07:31:38.975Z,13.11
2023-04-14T07:34:06.171Z,13.31
2023-04-14T07:36:33.321Z,13.30
2023-04-14T07:39:00.289Z,13.41
2023-04-14T07:41:27.992Z,13.50
2023-04-14T07:43:55.780Z,13.59
2023-04-14T07:46:22.773Z,13.63
2023-04-14T07:48:49.588Z,13.59
2023-04-14T07:51:16.669Z,13.54
2023-04-14T07:53:45.156Z,13.73
2023-04-14T07:56:12.760Z,13.78
2023-04-14T07:58:40.154Z,13.94
2023-04-14T08:01:07.796Z,14.01
2023-04-14T08:03:37.482Z,13.98
2023-04-14T08:06:06.811Z,14.06
2023-04-14T08:08:34.293Z,14.16
2023-04-14T08:11:01.215Z,14.12
2023-04-14T08:13:28.122Z,14.19
2023-04-14T08:15:55.030Z,14.28
2023-04-14T08:18:21.929Z,14.38
2023-04-14T08:20:48.754Z,14.27
2023-04-14T08:23:16.230Z,14.42
2023-04-14T08:25:44.375Z,14.45
2023-04-14T08:28:11.294Z,14.55
2023-04-14T08:30:38.353Z,14.63
2023-04-14T08:33:05.263Z,14.66
2023-04-14T08:35:35.433Z,14.74
2023-04-14T08:38:07.549Z,14.69
2023-04-14T08:40:38.580Z,14.66
2023-04-14T08:43:06.606Z,14.69
2023-04-14T08:45:34.034Z,14.68
2023-04-14T08:48:02.947Z,14.75
2023-04-14T08:50:37.420Z,14.75
2023-04-14T08:53:08.585Z,14.74
2023-04-14T08:55:40.483Z,14.82
2023-04-14T08:58:10.468Z,14.84
2023-04-14T09:00:38.586Z,14.94
2023-04-14T09:03:06.196Z,14.83
2023-04-14T09:05:33.342Z,15.05
2023-04-14T09:08:00.869Z,15.20
2023-04-14T09:10:30.264Z,15.33
2023-04-14T09:12:57.626Z,15.42
2023-04-14T09:15:27.388Z,15.60
2023-04-14T09:17:55.593Z,15.69
2023-04-14T09:20:37.508Z,15.80
2023-04-14T09:23:10.799Z,15.94
2023-04-14T09:25:39.206Z,16.09
2023-04-14T09:28:05.995Z,16.22
2023-04-14T09:30:33.160Z,16.26
2023-04-14T09:33:04.106Z,16.33
2023-04-14T09:35:48.712Z,16.36
2023-04-14T09:38:32.636Z,16.42
2023-04-14T09:40:59.468Z,16.40
2023-04-14T09:43:27.629Z,16.44
2023-04-14T09:45:55.466Z,16.52
2023-04-14T09:48:22.538Z,16.63
2023-04-14T09:50:57.434Z,16.71
2023-04-14T09:53:31.400Z,16.77
2023-04-14T09:56:00.158Z,16.88
2023-04-14T09:58:34.299Z,16.96
2023-04-14T10:01:04.948Z,17.01
2023-04-14T10:03:34.628Z,17.00
2023-04-14T10:06:04.746Z,17.15
2023-04-14T10:08:37.253Z,17.34
2023-04-14T10:11:21.666Z,17.36
2023-04-14T10:13:59.358Z,17.52
2023-04-14T10:16:27.454Z,17.48
2023-04-14T10:18:55.313Z,17.47
2023-04-14T10:21:24.691Z,17.46
2023-04-14T10:23:52.142Z,17.56
2023-04-14T10:26:19.682Z,17.61
2023-04-14T10:28:49.325Z,17.65
2023-04-14T10:31:25.331Z,17.67
2023-04-14T10:33:52.589Z,17.73
2023-04-14T10:36:28.419Z,17.88
2023-04-14T10:39:01.354Z,18.12
2023-04-14T10:41:48.999Z,18.40
2023-04-14T10:44:32.833Z,18.72
2023-04-14T10:47:02.289Z,18.95
2023-04-14T10:49:37.276Z,19.13
2023-04-14T10:52:05.122Z,19.32
2023-04-14T10:54:54.236Z,19.48
2023-04-14T10:57:25.127Z,19.54
2023-04-14T10:59:57.210Z,19.60
2023-04-14T11:02:32.321Z,19.64
2023-04-14T11:04:59.286Z,19.29
2023-04-14T11:07:28.775Z,19.46
2023-04-14T11:10:03.291Z,19.35
2023-04-14T11:12:30.153Z,19.43
2023-04-14T11:15:02.537Z,19.25
2023-04-14T11:17:30.659Z,19.20
2023-04-14T11:19:58.045Z,18.97
2023-04-14T11:22:41.642Z,18.87
2023-04-14T11:25:10.969Z,18.81
2023-04-14T11:27:38.047Z,18.91
2023-04-14T11:30:07.176Z,18.79
2023-04-14T11:32:54.032Z,18.76
2023-04-14T11:35:24.137Z,18.76
2023-04-14T11:37:55.896Z,18.86
2023-04-14T11:40:23.733Z,18.89
2023-04-14T11:42:55.523Z,18.82
2023-04-14T11:45:23.315Z,18.82
2023-04-14T11:47:50.129Z,18.87
2023-04-14T11:50:17.126Z,18.97
2023-04-14T11:52:47.655Z,19.12
2023-04-14T11:55:15.176Z,19.20
2023-04-14T11:57:45.968Z,19.31
2023-04-14T12:00:13.864Z,19.38
2023-04-14T12:02:45.351Z,19.49
2023-04-14T12:05:14.147Z,19.57
2023-04-14T12:07:45.690Z,19.46
2023-04-14T12:10:13.476Z,19.54
2023-04-14T12:12:41.216Z,19.59
2023-04-14T12:15:09.432Z,19.68
2023-04-14T12:17:37.354Z,19.92
2023-04-14T12:20:05.560Z,20.08
2023-04-14T12:22:32.454Z,20.24
2023-04-14T12:24:59.423Z,20.25
2023-04-14T12:27:27.492Z,20.32
2023-04-14T12:29:54.508Z,20.61
2023-04-14T12:32:22.885Z,20.72
2023-04-14T12:34:58.885Z,20.88
2023-04-14T12:37:27.088Z,20.85
2023-04-14T12:39:59.648Z,21.04
2023-04-14T12:42:44.078Z,21.13
2023-04-14T12:45:11.268Z,21.20
2023-04-14T12:47:38.640Z,21.12
2023-04-14T12:50:28.382Z,20.94
2023-04-14T12:52:57.111Z,20.80
2023-04-14T12:55:25.783Z,20.79
2023-04-14T12:57:55.621Z,20.70
2023-04-14T13:00:23.477Z,20.53
2023-04-14T13:02:51.436Z,20.57
2023-04-14T13:05:18.673Z,20.43
2023-04-14T13:07:46.541Z,20.38
2023-04-14T13:10:13.638Z,20.39
2023-04-14T13:12:40.647Z,20.40
2023-04-14T13:15:07.984Z,20.47
2023-04-14T13:17:34.993Z,20.60
2023-04-14T13:20:01.930Z,20.71
2023-04-14T13:22:28.792Z,20.94
2023-04-14T13:24:58.359Z,21.07
2023-04-14T13:27:25.511Z,21.19
2023-04-14T13:29:52.300Z,21.38
2023-04-14T13:32:19.236Z,21.30
2023-04-14T13:34:46.370Z,21.34
2023-04-14T13:37:13.258Z,21.29
2023-04-14T13:39:40.115Z,21.26
2023-04-14T13:42:06.929Z,21.23
2023-04-14T13:44:35.212Z,21.25
2023-04-14T13:47:02.745Z,21.17
2023-04-14T13:49:30.231Z,21.09
2023-04-14T13:51:57.127Z,21.09
2023-04-14T13:54:24.098Z,21.05
2023-04-14T13:56:51.155Z,20.90
2023-04-14T13:59:17.986Z,20.73
2023-04-14T14:01:45.061Z,20.78
2023-04-14T14:04:12.086Z,20.71
2023-04-14T14:06:38.893Z,20.72
2023-04-14T14:09:06.656Z,20.79
2023-04-14T14:11:34.753Z,20.73
2023-04-14T14:14:01.871Z,20.90
2023-04-14T14:16:36.573Z,21.07
2023-04-14T14:19:07.353Z,21.04
2023-04-14T14:21:34.350Z,21.17
2023-04-14T14:24:01.413Z,21.36
2023-04-14T14:26:28.418Z,21.27
2023-04-14T14:28:55.196Z,21.26
2023-04-14T14:31:22.034Z,21.27
2023-04-14T14:33:48.834Z,21.03
2023-04-14T14:36:15.697Z,21.08
2023-04-14T14:38:42.463Z,21.03
2023-04-14T14:41:09.256Z,20.91
2023-04-14T14:43:36.297Z,20.84
2023-04-14T14:46:04.144Z,20.79
2023-04-14T14:48:31.442Z,20.72
2023-04-14T14:50:59.835Z,20.71
2023-04-14T14:53:32.522Z,20.62
2023-04-14T14:56:06.068Z,20.57
2023-04-14T14:58:33.029Z,20.51
2023-04-14T15:00:59.786Z,20.42
2023-04-14T15:03:26.613Z,20.42
2023-04-14T15:05:53.737Z,20.50
2023-04-14T15:08:20.655Z,20.48
2023-04-14T15:10:47.461Z,20.52
2023-04-14T15:13:14.243Z,20.51
2023-04-14T15:15:41.293Z,20.42
2023-04-14T15:18:08.132Z,20.41
2023-04-14T15:20:35.341Z,20.40
2023-04-14T15:23:02.133Z,20.35
2023-04-14T15:25:29.121Z,20.29
2023-04-14T15:27:55.903Z,20.18
2023-04-14T15:30:23.883Z,20.14
2023-04-14T15:32:51.519Z,20.21
2023-04-14T15:35:18.410Z,20.15
2023-04-14T15:37:45.804Z,20.01
2023-04-14T15:40:12.683Z,20.13
2023-04-14T15:42:40.256Z,20.18
2023-04-14T15:45:07.562Z,20.18
2023-04-14T15:47:34.332Z,20.16
2023-04-14T15:50:09.557Z,20.19
2023-04-14T15:52:40.122Z,20.16
2023-04-14T15:55:07.894Z,20.24
2023-04-14T15:57:34.710Z,20.20
2023-04-14T16:00:03.908Z,20.30
2023-04-14T16:02:39.527Z,20.25
2023-04-14T16:05:07.318Z,20.22
2023-04-14T16:07:34.167Z,20.21
2023-04-14T16:10:01.227Z,20.23
2023-04-14T16:12:28.058Z,20.39
2023-04-14T16:14:54.806Z,20.47
2023-04-14T16:17:22.131Z,20.35
2023-04-14T16:19:48.909Z,20.27
2023-04-14T16:22:15.674Z,20.20
2023-04-14T16:24:42.471Z,20.16
2023-04-14T16:27:09.333Z,20.03
2023-04-14T16:29:36.709Z,19.92
2023-04-14T16:32:04.188Z,19.85
2023-04-14T16:34:31.240Z,19.85
2023-04-14T16:36:58.697Z,19.82
2023-04-14T16:39:26.041Z,19.74
2023-04-14T16:41:52.816Z,19.71
2023-04-14T16:44:19.514Z,19.65
2023-04-14T16:46:46.312Z,19.69
2023-04-14T16:49:13.744Z,19.70
2023-04-14T16:51:42.909Z,19.78
2023-04-14T16:54:09.697Z,19.86
2023-04-14T16:56:39.419Z,19.87
2023-04-14T16:59:07.154Z,19.89
2023-04-14T17:01:34.443Z,19.92
2023-04-14T17:04:01.732Z,19.91
2023-04-14T17:06:29.083Z,20.03
2023-04-14T17:08:55.894Z,20.25
2023-04-14T17:11:22.609Z,20.48
2023-04-14T17:13:49.432Z,20.68
2023-04-14T17:16:16.770Z,20.87
2023-04-14T17:18:44.070Z,21.02
2023-04-14T17:21:10.822Z,21.20
2023-04-14T17:23:37.862Z,21.19
2023-04-14T17:26:05.680Z,21.19
2023-04-14T17:28:34.463Z,21.06
2023-04-14T17:31:02.085Z,21.07
2023-04-14T17:33:29.164Z,21.01
2023-04-14T17:35:56.345Z,20.98
2023-04-14T17:38:23.601Z,20.91
2023-04-14T17:40:51.810Z,20.83
2023-04-14T17:43:18.800Z,20.77
2023-04-14T17:45:50.301Z,20.74
2023-04-14T17:48:18.038Z,20.72
2023-04-14T17:50:46.422Z,20.65
2023-04-14T17:53:24.098Z,20.62
2023-04-14T17:55:52.355Z,20.51
2023-04-14T17:58:20.282Z,20.46
2023-04-14T18:00:47.711Z,20.33
2023-04-14T18:03:16.265Z,20.31
2023-04-14T18:05:43.697Z,20.29
2023-04-14T18:08:10.500Z,20.26
2023-04-14T18:10:38.045Z,20.19
2023-04-14T18:13:04.906Z,20.15
2023-04-14T18:15:32.330Z,20.09
2023-04-14T18:17:59.168Z,20.10
2023-04-14T18:20:29.310Z,20.06
2023-04-14T18:22:57.815Z,20.05
2023-04-14T18:25:24.561Z,20.02
2023-04-14T18:30:24.712Z,19.96
2023-04-14T18:32:52.321Z,19.97
2023-04-14T18:35:19.056Z,19.95
2023-04-14T18:37:46.532Z,19.88
2023-04-14T18:40:13.288Z,19.90
2023-04-14T18:42:40.044Z,19.88
2023-04-14T18:45:07.457Z,19.87
2023-04-14T18:47:34.361Z,19.87
2023-04-14T18:50:01.358Z,19.83
2023-04-14T18:52:28.254Z,19.85
2023-04-14T18:54:55.224Z,19.85
2023-04-14T18:57:23.909Z,19.84
2023-04-14T18:59:50.668Z,19.85
2023-04-14T19:02:17.487Z,19.82
2023-04-14T19:04:44.746Z,19.80
2023-04-14T19:07:11.573Z,19.78
2023-04-14T19:09:38.482Z,19.78
2023-04-14T19:12:05.471Z,19.77
2023-04-14T19:14:32.840Z,19.85
2023-04-14T19:17:00.918Z,19.93
2023-04-14T19:19:27.722Z,20.02
2023-04-14T19:21:54.553Z,20.06
2023-04-14T19:24:21.250Z,20.10
2023-04-14T19:26:48.120Z,20.13
2023-04-14T19:29:14.955Z,20.16
2023-04-14T19:31:41.727Z,20.17
2023-04-14T19:34:08.922Z,20.20
2023-04-14T19:36:35.760Z,20.22
2023-04-14T19:39:03.972Z,20.25
2023-04-14T19:41:32.070Z,20.25
2023-04-14T19:43:58.850Z,20.23
2023-04-14T19:46:26.281Z,20.24
2023-04-14T19:48:54.558Z,20.24
2023-04-14T19:51:21.603Z,20.23
2023-04-14T19:53:48.370Z,20.23
2023-04-14T19:56:15.106Z,20.25
2023-04-14T19:58:43.404Z,20.23
2023-04-14T20:01:11.275Z,20.26
2023-04-14T20:03:38.144Z,20.25
2023-04-14T20:06:10.231Z,20.27
2023-04-14T20:08:37.163Z,20.26
2023-04-14T20:11:03.888Z,20.27
2023-04-14T20:13:34.796Z,20.27
2023-04-14T20:16:01.650Z,20.24
2023-04-14T20:18:29.011Z,20.23
2023-04-14T20:20:56.618Z,20.25
2023-04-14T20:23:23.359Z,20.23
2023-04-14T20:25:51.043Z,20.28
2023-04-14T20:28:19.598Z,20.25
2023-04-14T20:30:48.320Z,20.25
2023-04-14T20:33:16.628Z,20.23
2023-04-14T20:35:43.820Z,20.24
2023-04-14T20:38:15.003Z,20.21
2023-04-14T20:40:42.543Z,20.18
2023-04-14T20:43:09.592Z,20.18
2023-04-14T20:45:36.488Z,20.21
2023-04-14T20:48:04.951Z,20.20
2023-04-14T20:50:32.985Z,20.18
2023-04-14T20:53:00.606Z,20.17
2023-04-14T20:55:27.403Z,20.18
2023-04-14T20:57:54.494Z,20.19
2023-04-14T21:00:21.269Z,20.15
2023-04-14T21:02:48.829Z,20.17
2023-04-14T21:05:17.672Z,20.16
2023-04-14T21:07:45.766Z,20.14
2023-04-14T21:10:13.746Z,20.12
2023-04-14T21:12:48.354Z,20.04
2023-04-14T21:15:50.110Z,20.01
2023-04-14T21:18:14.884Z,20.03
2023-04-14T21:20:43.500Z,20.01
2023-04-14T21:23:10.258Z,19.84
2023-04-14T21:25:37.186Z,19.46
2023-04-14T21:28:04.002Z,19.38
2023-04-14T21:30:31.598Z,19.13
2023-04-14T21:33:01.180Z,18.75
2023-04-14T21:35:31.373Z,18.63
2023-04-14T21:37:58.463Z,18.48
2023-04-14T21:40:25.481Z,18.44
2023-04-14T21:42:52.994Z,18.22
2023-04-14T21:45:20.428Z,18.01
2023-04-14T21:47:47.297Z,18.06
2023-04-14T21:50:14.952Z,18.01
2023-04-14T21:52:41.792Z,18.00
2023-04-14T21:55:09.261Z,17.99
2023-04-14T21:57:45.539Z,17.85
2023-04-14T22:00:17.883Z,17.69
2023-04-14T22:02:45.782Z,17.70
2023-04-14T22:05:13.738Z,17.64
2023-04-14T22:07:41.298Z,17.47
2023-04-14T22:10:08.493Z,17.56
2023-04-14T22:12:36.153Z,17.51
2023-04-14T22:15:04.568Z,17.54
2023-04-14T22:17:31.437Z,17.45
2023-04-14T22:19:59.271Z,17.41
2023-04-14T22:22:26.085Z,17.36
2023-04-14T22:24:54.840Z,17.16
2023-04-14T22:27:21.576Z,17.10
2023-04-14T22:29:48.936Z,17.05
2023-04-14T22:32:16.294Z,16.76
2023-04-14T22:34:43.372Z,16.67
2023-04-14T22:37:10.369Z,16.79
2023-04-14T22:39:37.109Z,16.76
2023-04-14T22:42:03.909Z,16.81
2023-04-14T22:44:30.697Z,16.77
2023-04-14T22:46:57.705Z,16.76
2023-04-14T22:49:24.638Z,16.81
2023-04-14T22:51:51.964Z,16.88
2023-04-14T22:54:18.752Z,16.94
2023-04-14T22:56:45.859Z,16.95
2023-04-14T22:59:12.687Z,16.99
2023-04-14T23:01:39.728Z,16.99
2023-04-14T23:04:06.586Z,17.04
2023-04-14T23:06:33.614Z,17.01
2023-04-14T23:09:00.493Z,17.02
2023-04-14T23:11:27.749Z,17.05
2023-04-14T23:13:54.546Z,17.09
2023-04-14T23:16:21.450Z,17.06
2023-04-14T23:18:54.598Z,17.02
2023-04-14T23:21:24.800Z,17.09
2023-04-14T23:23:51.822Z,16.90
2023-04-14T23:26:22.060Z,16.84
2023-04-14T23:28:48.923Z,16.83
2023-04-14T23:31:15.758Z,16.85
2023-04-14T23:33:42.719Z,16.89
2023-04-14T23:36:09.447Z,16.96
2023-04-14T23:38:36.555Z,16.97
2023-04-14T23:41:03.408Z,16.95
2023-04-14T23:43:31.574Z,16.96
2023-04-14T23:45:58.325Z,16.94
2023-04-14T23:48:26.821Z,16.85
2023-04-14T23:50:59.036Z,16.84
2023-04-14T23:53:28.569Z,16.72
2023-04-14T23:55:55.684Z,16.55
2023-04-14T23:58:26.815Z,16.69
